Latest Coastal Weather Observations for Mackay

IDQ60701

Issued at 5:51 pm EST Thursday 17 October 2019 (issued every 10 minutes, with the page automatically refreshed every 10 minutes)

About coastal observations | Map of coastal stations | Coastal observations for QLD | Marine services | Other Formats
Station Details ID: 033119 Name: MACKAY M.O Lat: -21.12 Lon: 149.22 Height: 30.26 m
Data from the previous 72 hours. | See also: Recent months at Mackay
Date/Time
EST
Wind Sea
Height
m
Swell Vis
km
Cloud Weather Temp
°C
Press
hPa
Rain since
9am
mm
Dir  Spd
kts
Gust
kts
Height
m
Period
s
Dir
17/05:30pm N 11 17 - - - - - - - 25.2 1014.1 0.0
17/05:00pm N 11 18 - - - - - - - 26.0 1013.9 0.0
17/04:30pm N 12 19 - - - - - - - 26.5 1013.6 0.0
17/04:00pm N 11 22 - - - - - - - 27.1 1013.4 0.0
17/03:30pm N 9 16 - - - - - - - 28.1 1013.4 0.0
17/03:00pm NNE 11 18 - - - - - - - 28.5 1013.5 0.0
17/02:30pm N 9 16 - - - - - - - 30.2 1013.9 0.0
17/02:00pm N 10 16 - - - - - - - 30.2 1014.4 0.0
17/01:30pm N 11 17 - - - - - - - 30.0 1014.6 0.0
17/01:00pm N 9 17 - - - - - Partly cloudy - 30.3 1015.2 0.0
17/12:30pm N 10 17 - - - - - Partly cloudy - 29.4 1015.8 0.0
17/12:00pm NNE 8 14 - - - - - Cloudy - 29.4 1016.3 0.0
17/11:30am NNE 9 14 - - - - - Partly cloudy - 31.0 1016.5 0.0
17/11:00am NNE 8 15 - - - - - Partly cloudy - 30.9 1016.7 0.0
17/10:30am NNE 8 15 - - - - - Partly cloudy - 29.6 1017.3 0.0
17/10:00am NNE 7 13 - - - - - Partly cloudy - 28.1 1017.5 0.0
17/09:30am NNE 7 11 - - - - - Cloudy - 28.3 1017.7 0.0
17/09:00am NNE 7 12 - - - - - Cloudy - 27.8 1017.7 0.0
17/08:30am NNE 6 10 - - - - - Cloudy - 26.8 1017.6 0.0
17/08:00am NNE 6 11 - - - - - Cloudy - 27.1 1017.0 0.0
17/07:30am N 6 11 - - - - - Cloudy - 25.4 1017.0 0.0
17/07:00am N 6 9 - - - - - Cloudy - 24.9 1016.9 0.0
17/06:30am N 4 7 - - - - - Partly cloudy - 24.2 1016.6 0.0
17/06:00am N 7 11 - - - - - Cloudy - 24.1 1015.8 0.0
17/05:30am N 7 13 - - - - - Cloudy - 24.0 1015.0 0.0
17/05:00am N 9 16 - - - - - Partly cloudy - 23.9 1014.6 0.0
17/04:30am N 8 15 - - - - - Partly cloudy - 23.9 1014.2 0.0
17/04:00am N 8 13 - - - - - Partly cloudy - 23.5 1014.0 0.0
17/03:30am N 7 13 - - - - - Partly cloudy - 23.4 1013.7 0.0
17/03:00am N 8 14 - - - - - Cloudy - 23.4 1013.6 0.0
17/02:30am NNE 8 13 - - - - - Partly cloudy - 23.5 1013.4 0.0
17/02:00am N 7 11 - - - - - Partly cloudy - 23.5 1013.9 0.0
17/01:30am N 6 11 - - - - - Partly cloudy - 23.1 1014.2 0.0
17/01:00am N 7 11 - - - - - Partly cloudy - 23.6 1014.5 0.0
17/12:30am N 7 11 - - - - - Partly cloudy - 23.3 1014.6 0.0
17/12:00am N 7 12 - - - - - Cloudy - 23.5 1014.8 0.0
 
Date/Time
EST
Wind Sea
Height
m
Swell Vis
km
Cloud Weather Temp
°C
Press
hPa
Rain since
9am
mm
Dir  Spd
kts
Gust
kts
Height
m
Period
s
Dir
16/11:30pm N 7 12 - - - - - Partly cloudy - 23.5 1015.0 0.0
16/11:00pm N 6 12 - - - - - Partly cloudy - 23.6 1015.1 0.0
16/10:30pm N 7 13 - - - - - Partly cloudy - 23.7 1015.2 0.0
16/10:00pm N 9 13 - - - - - Partly cloudy - 23.8 1015.3 0.0
16/09:30pm N 8 12 - - - - - Partly cloudy - 23.7 1015.4 0.0
16/09:00pm N 9 14 - - - - - Mostly clear - 23.9 1015.4 0.0
16/08:30pm N 9 14 - - - - - - - 23.9 1015.2 0.0
16/08:00pm N 8 13 - - - - - - - 24.0 1015.1 0.0
16/07:30pm N 8 14 - - - - - - - 24.1 1015.0 0.0
16/07:00pm N 9 16 - - - - - - - 24.1 1014.8 0.0
16/06:30pm N 8 13 - - - - - - - 24.3 1014.4 0.0
16/06:00pm N 9 16 - - - - - - - 24.7 1014.2 0.0
16/05:30pm N 8 15 - - - - - - - 25.3 1013.8 0.0
16/05:00pm N 11 18 - - - - - - - 25.9 1013.6 0.0
16/04:30pm N 10 16 - - - - - - - 26.5 1013.4 0.0
16/04:00pm N 11 18 - - - - - - - 27.2 1013.3 0.0
16/03:30pm N 10 17 - - - - - - - 27.7 1013.1 0.0
16/03:00pm N 12 19 - - - - - - - 28.3 1013.3 0.0
16/02:30pm N 12 19 - - - - - Partly cloudy - 28.6 1013.6 0.0
16/02:00pm N 11 19 - - - - - - - 29.1 1013.9 0.0
16/01:30pm N 12 19 - - - - - Partly cloudy - 28.3 1014.1 0.0
16/01:00pm N 12 21 - - - - - Partly cloudy - 28.6 1014.3 0.0
16/12:30pm NNE 10 21 - - - - - Partly cloudy - 29.8 1014.4 0.0
16/12:00pm N 10 19 - - - - - Mostly clear - 29.6 1014.7 0.0
16/11:30am N 11 18 - - - - - Partly cloudy - 29.7 1015.1 0.0
16/11:00am N 11 19 - - - - - Partly cloudy - 28.7 1015.4 0.0
16/10:30am N 9 15 - - - - - Partly cloudy - 28.8 1015.5 0.0
16/10:00am N 11 16 - - - - - Partly cloudy - 28.8 1016.0 0.0
16/09:30am N 10 15 - - - - - Partly cloudy - 28.8 1016.1 0.0
16/09:00am N 9 15 - - - - - Mostly clear - 26.7 1016.0 0.0
16/08:30am N 12 19 - - - - - - - 26.4 1015.9 0.0
16/08:00am N 10 16 - - - - - - - 26.3 1015.6 0.0
16/07:30am N 10 16 - - - - - Partly cloudy - 25.5 1015.4 0.0
16/07:00am N 9 15 - - - - - - - 24.3 1015.0 0.0
16/06:30am N 8 14 - - - - - - - 23.1 1014.7 0.0
16/06:00am N 7 11 - - - - - Mostly clear - 22.8 1014.3 0.0
16/05:30am N 8 12 - - - - - Partly cloudy - 22.7 1013.8 0.0
16/05:00am N 8 13 - - - - - Partly cloudy - 22.6 1013.4 0.0
16/04:30am N 8 13 - - - - - Partly cloudy - 22.6 1013.1 0.0
16/04:00am N 5 8 - - - - - Partly cloudy - 22.0 1012.8 0.0
16/03:30am NNW 5 6 - - - - - Partly cloudy - 22.3 1012.4 0.0
16/03:00am N 5 8 - - - - - Partly cloudy - 22.2 1011.9 0.0
16/02:30am NNW 6 8 - - - - - Partly cloudy - 22.3 1011.6 0.0
16/02:00am NNW 9 14 - - - - - Partly cloudy - 22.8 1011.4 0.0
16/01:30am NNW 9 15 - - - - - Partly cloudy - 22.9 1011.8 0.0
16/01:00am N 10 16 - - - - - Partly cloudy - 23.2 1012.1 0.0
16/12:30am N 10 18 - - - - - Partly cloudy - 23.2 1012.1 0.0
16/12:00am N 9 17 - - - - - Partly cloudy - 23.2 1012.4 0.0
 
Date/Time
EST
Wind Sea
Height
m
Swell Vis
km
Cloud Weather Temp
°C
Press
hPa
Rain since
9am
mm
Dir  Spd
kts
Gust
kts
Height
m
Period
s
Dir
15/11:30pm N 10 16 - - - - - Partly cloudy - 23.3 1012.6 0.0
15/11:00pm NNE 8 14 - - - - - Partly cloudy - 23.5 1013.0 0.0
15/10:30pm NNE 7 12 - - - - - - - 23.5 1013.3 0.0
15/10:00pm NNE 6 12 - - - - - - - 23.8 1013.9 0.0
15/09:30pm N 8 14 - - - - - - - 23.9 1012.7 0.0
15/09:00pm N 9 15 - - - - - Mostly clear - 23.9 1012.1 0.0
15/08:30pm N 9 17 - - - - - - - 24.0 1011.9 0.0
15/08:00pm N 11 19 - - - - - - - 24.0 1011.6 0.0
15/07:30pm NNW 13 21 - - - - - - - 24.2 1011.2 0.0
15/07:00pm N 13 22 - - - - - - - 24.5 1010.8 0.0
15/06:30pm N 12 21 - - - - - - - 24.4 1010.4 0.0
15/06:00pm N 12 18 - - - - - - - 24.5 1010.3 0.0
15/05:30pm N 11 17 - - - - - - - 25.0 1010.2 0.0
15/05:00pm N 12 19 - - - - - - - 25.6 1010.1 0.0
15/04:30pm N 13 22 - - - - - - - 26.2 1010.1 0.0
15/04:00pm N 12 19 - - - - - - - 26.9 1010.5 0.0
15/03:30pm N 11 19 - - - - - - - 27.6 1010.5 0.0
15/03:00pm N 12 20 - - - - - - - 27.7 1010.7 0.0
15/02:30pm N 13 23 - - - - - - - 28.0 1010.9 0.0
15/02:00pm N 12 20 - - - - - - - 28.4 1011.4 0.0
15/01:30pm N 11 18 - - - - - - - 28.8 1012.1 0.0
15/01:00pm N 12 20 - - - - - - - 28.9 1012.7 0.0
15/12:30pm N 11 18 - - - - - - - 29.6 1013.2 0.0
15/12:00pm N 13 19 - - - - - - - 28.5 1013.8 0.0
15/11:30am N 13 22 - - - - - - - 28.2 1013.9 0.0
15/11:00am N 13 23 - - - - - Partly cloudy - 28.0 1014.3 0.0
15/10:30am N 13 20 - - - - - - - 28.0 1014.7 0.0
15/10:00am NNW 12 20 - - - - - - - 28.1 1015.2 0.0
15/09:30am N 13 20 - - - - - Partly cloudy - 26.4 1015.5 0.0
15/09:00am NNW 10 19 - - - - - Partly cloudy - 26.6 1015.8 0.0
15/08:30am NNW 9 16 - - - - - Partly cloudy - 26.5 1015.9 0.0
15/08:00am N 10 16 - - - - - Partly cloudy - 25.1 1015.7 0.0
15/07:30am NNW 7 11 - - - - - Partly cloudy - 23.1 1015.6 0.0
15/07:00am NNW 7 10 - - - - - Partly cloudy - 22.8 1015.2 0.0
15/06:30am NNW 6 11 - - - - - Partly cloudy - 23.0 1014.9 0.0
15/06:00am N 9 15 - - - - - Cloudy - 23.0 1014.5 0.0
15/05:30am N 8 13 - - - - - Partly cloudy - 22.8 1014.4 0.0
15/05:00am N 9 15 - - - - - Partly cloudy - 22.7 1014.1 0.0
15/04:30am N 8 14 - - - - - Partly cloudy - 22.8 1013.9 0.0
15/04:00am N 8 13 - - - - - Partly cloudy - 22.7 1013.8 0.0
15/03:30am NNW 9 15 - - - - - Partly cloudy - 22.7 1013.5 0.0
15/03:00am N 9 17 - - - - - Partly cloudy - 22.8 1013.6 0.0
15/02:30am N 9 14 - - - - - Partly cloudy - 22.7 1013.8 0.0
15/02:00am N 9 14 - - - - - Partly cloudy - 22.9 1014.3 0.0
15/01:30am N 8 12 - - - - - Partly cloudy - 23.0 1014.8 0.0
15/01:00am N 8 14 - - - - - Partly cloudy - 23.2 1015.1 0.0
15/12:30am N 9 14 - - - - - Partly cloudy - 23.4 1015.5 0.0
15/12:00am N 7 14 - - - - - Cloudy - 23.4 1016.0 0.0
 
Date/Time
EST
Wind Sea
Height
m
Swell Vis
km
Cloud Weather Temp
°C
Press
hPa
Rain since
9am
mm
Dir  Spd
kts
Gust
kts
Height
m
Period
s
Dir
14/11:30pm N 7 9 - - - - - Partly cloudy - 23.5 1016.3 0.0
14/11:00pm N 6 11 - - - - - Cloudy - 23.5 1016.4 0.0
14/10:30pm N 7 11 - - - - - Partly cloudy - 23.6 1016.5 0.0
14/10:00pm N 7 11 - - - - - Partly cloudy - 23.5 1016.5 0.0
14/09:30pm N 6 10 - - - - - Partly cloudy - 23.2 1016.5 0.0
14/09:00pm N 7 10 - - - - - Partly cloudy - 23.2 1016.5 0.0
14/08:30pm NNE 7 14 - - - - - Partly cloudy - 23.2 1016.2 0.0
14/08:00pm N 7 12 - - - - - Partly cloudy - 23.2 1015.8 0.0
14/07:30pm NNE 7 12 - - - - - Partly cloudy - 23.3 1015.7 0.0
14/07:00pm NNE 8 12 - - - - - Partly cloudy - 23.3 1015.5 0.0
14/06:30pm N 6 11 - - - - - Partly cloudy - 23.4 1015.2 0.0
14/06:00pm NNE 6 11 - - - - - Mostly clear - 23.8 1015.1 0.0

Other formats

Comma delimited format used in spreadsheet applications
http://www.bom.gov.au/fwo/IDQ60701/IDQ60701.94367.axf

JavaScript Object Notation format (JSON) in row-major order
http://www.bom.gov.au/fwo/IDQ60701/IDQ60701.94367.json

Data quality

Most of these data are generated automatically and are frequently updated. Quality checks on data are not normally performed. It is possible for incorrect values to appear. Refer to information at About Latest Weather Observations and please check the disclaimer before using these data.